Time;durP1;ratioP1;P1;durP2;ratioP2;P2;SDS_P1;SDS_P2;PMS_P1;PMS_P2;Temp;Humidity;BMP_temperature;BMP_pressure;BME280_temperature;BME280_humidity;BME280_pressure;Samples;Min_cycle;Max_cycle;Signal;HPM_P1;HPM_P2
2023/06/29 00:01:30;;;;;;;21.00;18.90;;;;;;;15.07;100.00;98688.04;137674;1274;22175;-84
2023/06/29 00:04:34;;;;;;;26.80;20.50;;;;;;;15.07;100.00;98686.29;137656;1274;22112;-84
2023/06/29 00:07:36;;;;;;;23.50;19.90;;;;;;;15.05;100.00;98686.13;137607;1274;22116;-83
2023/06/29 00:10:39;;;;;;;29.60;22.10;;;;;;;15.03;100.00;98688.59;137603;1274;22282;-80
2023/06/29 00:13:42;;;;;;;30.30;22.40;;;;;;;15.02;100.00;98695.27;137480;1274;22160;-83
2023/06/29 00:16:44;;;;;;;35.80;22.10;;;;;;;15.04;100.00;98691.05;137479;1274;22264;-83
2023/06/29 00:19:47;;;;;;;33.80;24.40;;;;;;;15.05;100.00;98688.58;137448;1274;22152;-84
2023/06/29 00:22:50;;;;;;;31.60;24.00;;;;;;;15.04;100.00;98688.06;137454;1274;22346;-83
2023/06/29 00:25:52;;;;;;;31.20;26.20;;;;;;;15.04;100.00;98684.91;137463;1274;22025;-84
2023/06/29 00:28:55;;;;;;;30.40;26.80;;;;;;;15.04;100.00;98685.44;137459;1274;23056;-85
2023/06/29 00:31:58;;;;;;;38.80;29.90;;;;;;;15.04;100.00;98682.27;137571;1274;22118;-83
2023/06/29 00:35:00;;;;;;;33.60;29.00;;;;;;;15.04;100.00;98686.31;137466;1274;22513;-83
2023/06/29 00:38:02;;;;;;;37.60;27.70;;;;;;;15.04;100.00;98683.15;137447;1273;22116;-83
2023/06/29 00:41:05;;;;;;;41.10;31.10;;;;;;;15.05;100.00;98686.66;137434;1274;22279;-83
2023/06/29 00:44:07;;;;;;;40.50;32.40;;;;;;;15.04;100.00;98680.53;137513;1274;22066;-82
2023/06/29 00:47:10;;;;;;;39.70;32.60;;;;;;;15.04;100.00;98680.17;137441;1274;22196;-83
2023/06/29 00:50:13;;;;;;;44.10;35.20;;;;;;;15.04;100.00;98672.99;137466;1274;22031;-83
2023/06/29 00:53:15;;;;;;;46.30;33.60;;;;;;;15.05;100.00;98674.90;137502;1274;22242;-83
2023/06/29 00:56:17;;;;;;;39.60;32.40;;;;;;;15.06;100.00;98673.14;137513;1274;22167;-83
2023/06/29 00:59:20;;;;;;;40.80;32.70;;;;;;;15.08;100.00;98671.73;137501;1274;22108;-83
2023/06/29 01:02:22;;;;;;;47.80;33.10;;;;;;;15.10;100.00;98671.53;137495;1274;22137;-83
2023/06/29 01:05:34;;;;;;;38.90;32.70;;;;;;;15.11;100.00;98671.00;137489;1274;22309;-84
2023/06/29 01:08:37;;;;;;;42.90;32.80;;;;;;;15.13;100.00;98669.05;137496;1269;22595;-84
2023/06/29 01:11:39;;;;;;;41.20;30.30;;;;;;;15.14;100.00;98665.89;137428;1274;22157;-85
2023/06/29 01:14:41;;;;;;;44.60;33.40;;;;;;;15.16;100.00;98668.67;137483;1274;22427;-84
2023/06/29 01:17:44;;;;;;;42.70;32.50;;;;;;;15.17;100.00;98670.42;137495;1270;22066;-84
2023/06/29 01:20:49;;;;;;;45.30;33.00;;;;;;;15.16;100.00;98674.81;137510;1274;22122;-84
2023/06/29 01:23:51;;;;;;;42.20;33.10;;;;;;;15.18;100.00;98673.91;137479;1268;22210;-84
2023/06/29 01:26:54;;;;;;;42.60;34.40;;;;;;;15.20;100.00;98674.77;137430;1274;22665;-83
2023/06/29 01:29:57;;;;;;;36.50;29.70;;;;;;;15.17;100.00;98671.30;137461;1274;22683;-85
2023/06/29 01:33:00;;;;;;;41.70;34.50;;;;;;;15.33;100.00;98674.82;137457;1274;22799;-83
2023/06/29 01:36:03;;;;;;;43.60;33.20;;;;;;;15.35;100.00;98673.40;137461;1274;22655;-84
2023/06/29 01:39:05;;;;;;;53.20;35.60;;;;;;;15.30;100.00;98672.39;137509;1273;22054;-84
2023/06/29 01:42:09;;;;;;;41.20;32.60;;;;;;;15.26;100.00;98673.14;137533;1274;22206;-82
2023/06/29 01:45:12;;;;;;;45.70;34.70;;;;;;;15.24;100.00;98673.67;137696;1274;22119;-84
2023/06/29 01:48:14;;;;;;;48.70;36.50;;;;;;;15.22;100.00;98673.70;137668;1274;22081;-84
2023/06/29 01:51:17;;;;;;;45.30;38.30;;;;;;;15.19;100.00;98677.75;137683;1274;22156;-84
2023/06/29 01:54:20;;;;;;;49.00;42.70;;;;;;;15.16;100.00;98681.12;137699;1274;22324;-84
2023/06/29 01:57:22;;;;;;;51.90;42.70;;;;;;;15.14;100.00;98684.12;137589;1274;22092;-84
2023/06/29 02:00:26;;;;;;;54.30;43.90;;;;;;;15.12;100.00;98682.20;137639;1274;22008;-84
2023/06/29 02:03:30;;;;;;;48.00;41.60;;;;;;;15.11;100.00;98677.48;137571;1269;22261;-84
2023/06/29 02:06:32;;;;;;;47.30;40.70;;;;;;;15.15;100.00;98673.42;137478;1265;22362;-85
2023/06/29 02:09:35;;;;;;;49.70;40.80;;;;;;;15.20;100.00;98672.84;137477;1274;22137;-86
2023/06/29 02:12:37;;;;;;;45.70;38.60;;;;;;;15.23;100.00;98673.17;137491;1274;22069;-83
2023/06/29 02:15:40;;;;;;;48.40;39.10;;;;;;;15.24;100.00;98678.23;137487;1274;22166;-84
2023/06/29 02:18:42;;;;;;;51.40;38.60;;;;;;;15.27;100.00;98677.33;137470;1270;22689;-83
2023/06/29 02:21:45;;;;;;;53.80;39.70;;;;;;;15.29;100.00;98680.81;137499;1274;22506;-82
2023/06/29 02:24:48;;;;;;;47.10;38.50;;;;;;;15.32;100.00;98682.55;137472;1274;22108;-84
2023/06/29 02:27:50;;;;;;;50.00;39.80;;;;;;;15.35;100.00;98689.70;137520;1274;22047;-84
2023/06/29 02:30:52;;;;;;;44.90;38.20;;;;;;;15.36;100.00;98688.65;137506;1274;22060;-83
2023/06/29 02:33:55;;;;;;;46.90;38.20;;;;;;;15.35;100.00;98692.33;137593;1274;22251;-84
2023/06/29 02:36:58;;;;;;;47.80;40.60;;;;;;;15.37;100.00;98695.29;137568;1274;22462;-83
2023/06/29 02:40:00;;;;;;;54.00;39.60;;;;;;;15.38;100.00;98701.95;137525;1274;22116;-83
2023/06/29 02:43:03;;;;;;;43.60;36.60;;;;;;;15.39;100.00;98702.46;137530;1274;22013;-84
2023/06/29 02:46:05;;;;;;;44.80;37.70;;;;;;;15.41;100.00;98705.60;137501;1274;22114;-84
2023/06/29 02:49:08;;;;;;;51.50;37.00;;;;;;;15.43;100.00;98704.71;137533;1270;22218;-84
2023/06/29 02:52:10;;;;;;;46.20;37.10;;;;;;;15.42;100.00;98700.86;137472;1274;22102;-83
2023/06/29 02:55:12;;;;;;;43.20;35.90;;;;;;;15.43;100.00;98700.50;137444;1274;22269;-84
2023/06/29 02:58:15;;;;;;;40.70;36.40;;;;;;;15.43;100.00;98705.77;137481;1274;22184;-83
2023/06/29 03:01:20;;;;;;;44.20;37.10;;;;;;;15.46;100.00;98708.71;137519;1274;22173;-84
2023/06/29 03:04:23;;;;;;;47.00;38.30;;;;;;;15.48;100.00;98712.36;137474;1274;22151;-84
2023/06/29 03:07:25;;;;;;;47.40;36.20;;;;;;;15.50;100.00;98718.48;137466;1274;22727;-84
2023/06/29 03:10:28;;;;;;;43.70;35.20;;;;;;;15.50;100.00;98719.71;137516;1270;22128;-84
2023/06/29 03:13:30;;;;;;;44.60;37.30;;;;;;;15.50;100.00;98720.06;137489;1274;22260;-84
2023/06/29 03:16:33;;;;;;;46.00;37.70;;;;;;;15.53;100.00;98717.58;137458;1274;22242;-83
2023/06/29 03:19:41;;;;;;;44.40;38.00;;;;;;;15.55;100.00;98719.66;137468;1274;22138;-85
2023/06/29 03:22:44;;;;;;;46.40;37.20;;;;;;;15.55;100.00;98724.92;137450;1270;22665;-84
2023/06/29 03:25:46;;;;;;;48.90;36.80;;;;;;;15.56;100.00;98725.61;137453;1262;22455;-83
2023/06/29 03:28:49;;;;;;;46.20;34.90;;;;;;;15.57;100.00;98729.30;137411;1274;22116;-84
2023/06/29 03:31:52;;;;;;;47.00;36.00;;;;;;;15.56;100.00;98730.70;137511;1274;22840;-84
2023/06/29 03:34:54;;;;;;;43.10;35.00;;;;;;;15.59;100.00;98732.27;137455;1274;22325;-84
2023/06/29 03:37:57;;;;;;;39.90;34.80;;;;;;;15.62;100.00;98732.45;137474;1274;22129;-84
2023/06/29 03:41:00;;;;;;;66.10;34.40;;;;;;;15.68;100.00;98733.80;137426;1274;22116;-82
2023/06/29 03:44:02;;;;;;;49.20;33.30;;;;;;;15.76;100.00;98731.09;137448;1274;22102;-82
2023/06/29 03:47:04;;;;;;;43.20;36.00;;;;;;;15.80;100.00;98734.91;137472;1258;22120;-83
2023/06/29 03:50:07;;;;;;;44.20;36.10;;;;;;;15.81;100.00;98741.20;137406;1274;22272;-83
2023/06/29 03:53:10;;;;;;;41.40;35.60;;;;;;;15.83;100.00;98739.95;137448;1274;22134;-82
2023/06/29 03:56:12;;;;;;;44.80;36.70;;;;;;;15.86;100.00;98746.25;137445;1271;22173;-83
2023/06/29 03:59:15;;;;;;;47.00;36.00;;;;;;;15.90;100.00;98748.48;137427;1262;22149;-82
2023/06/29 04:02:17;;;;;;;39.00;34.70;;;;;;;15.97;100.00;98750.51;137411;1271;22153;-82
2023/06/29 04:05:20;;;;;;;45.20;33.60;;;;;;;16.06;100.00;98748.30;137446;1274;22583;-84
2023/06/29 04:08:25;;;;;;;38.40;32.20;;;;;;;16.33;100.00;98746.21;137448;1274;22223;-84
2023/06/29 04:11:27;;;;;;;40.50;32.10;;;;;;;16.69;100.00;98751.05;137473;1274;22824;-84
2023/06/29 04:14:29;;;;;;;36.00;32.00;;;;;;;16.74;100.00;98755.02;137464;1274;22126;-84
2023/06/29 04:17:32;;;;;;;37.40;32.70;;;;;;;16.58;100.00;98756.45;137422;1274;22615;-85
2023/06/29 04:20:35;;;;;;;45.60;33.50;;;;;;;16.42;100.00;98752.77;137454;1274;22713;-82
2023/06/29 04:23:37;;;;;;;37.90;33.80;;;;;;;16.32;100.00;98759.74;137448;1274;22160;-81
2023/06/29 04:26:41;;;;;;;36.40;32.40;;;;;;;16.28;100.00;98762.42;137462;1274;22131;-81
2023/06/29 04:29:43;;;;;;;37.10;32.50;;;;;;;16.29;100.00;98761.19;137429;1274;22096;-81
2023/06/29 04:32:45;;;;;;;42.70;35.50;;;;;;;16.26;100.00;98762.27;137448;1274;22618;-81
2023/06/29 04:35:48;;;;;;;43.40;35.50;;;;;;;16.23;100.00;98769.86;137467;1274;22156;-81
2023/06/29 04:38:51;;;;;;;40.70;34.50;;;;;;;16.34;100.00;98768.50;137495;1274;22533;-84
2023/06/29 04:42:00;;;;;;;36.40;32.40;;;;;;;16.50;100.00;98766.73;137427;1274;22126;-81
2023/06/29 04:45:03;;;;;;;39.50;34.30;;;;;;;16.66;100.00;98766.89;137424;1274;22678;-81
2023/06/29 04:48:06;;;;;;;49.90;34.00;;;;;;;16.86;100.00;98768.20;137458;1274;22083;-81
2023/06/29 04:51:09;;;;;;;36.50;32.00;;;;;;;17.08;100.00;98764.01;137292;1274;22868;-82
2023/06/29 04:54:11;;;;;;;38.00;30.50;;;;;;;17.24;100.00;98767.27;137432;1274;22600;-83
2023/06/29 04:57:14;;;;;;;34.60;29.30;;;;;;;17.18;100.00;98767.89;137417;1262;22642;-83
2023/06/29 05:00:16;;;;;;;32.50;29.20;;;;;;;17.13;100.00;98771.83;137410;1274;22962;-83
2023/06/29 05:03:19;;;;;;;33.90;30.20;;;;;;;16.99;100.00;98770.65;137420;1274;22120;-84
2023/06/29 05:06:22;;;;;;;38.30;31.50;;;;;;;16.96;100.00;98768.41;137429;1274;22109;-82
2023/06/29 05:09:24;;;;;;;33.60;30.10;;;;;;;16.98;100.00;98775.58;137409;1274;22612;-82
2023/06/29 05:12:27;;;;;;;35.30;30.70;;;;;;;17.17;100.00;98774.77;137320;1274;22487;-82
2023/06/29 05:15:29;;;;;;;30.50;27.20;;;;;;;17.29;100.00;98774.75;137431;1274;22596;-84
2023/06/29 05:18:32;;;;;;;29.70;25.70;;;;;;;17.36;100.00;98774.49;137458;1274;22725;-82
2023/06/29 05:21:35;;;;;;;28.30;25.30;;;;;;;17.50;100.00;98766.15;137038;1274;381306;-82
2023/06/29 05:24:39;;;;;;;26.10;23.40;;;;;;;17.90;100.00;98764.58;137378;1274;22483;-83
2023/06/29 05:27:42;;;;;;;25.30;22.30;;;;;;;18.05;100.00;98763.59;137409;1274;22272;-84
2023/06/29 05:30:44;;;;;;;23.60;21.10;;;;;;;18.14;100.00;98765.71;137387;1274;22117;-84
2023/06/29 05:33:47;;;;;;;21.80;19.60;;;;;;;18.27;100.00;98768.64;137478;1274;22108;-84
2023/06/29 05:36:50;;;;;;;19.50;17.70;;;;;;;18.33;100.00;98773.81;137411;1274;22197;-80
2023/06/29 05:39:52;;;;;;;19.50;17.20;;;;;;;18.36;100.00;98774.27;137411;1274;22137;-84
2023/06/29 05:42:55;;;;;;;19.40;17.40;;;;;;;18.64;100.00;98776.16;137473;1274;22271;-82
2023/06/29 05:45:57;;;;;;;18.20;15.10;;;;;;;18.96;100.00;98771.23;137422;1274;22149;-79
2023/06/29 05:49:00;;;;;;;16.70;14.70;;;;;;;19.16;100.00;98771.51;137453;1274;22109;-79
2023/06/29 05:52:02;;;;;;;16.90;13.50;;;;;;;19.19;100.00;98769.30;137427;1274;22765;-79
2023/06/29 05:55:05;;;;;;;14.40;13.10;;;;;;;19.29;100.00;98767.83;137452;1274;22260;-84
2023/06/29 05:58:08;;;;;;;14.00;12.60;;;;;;;19.34;100.00;98769.98;137460;1274;22156;-83
2023/06/29 06:01:10;;;;;;;17.60;14.70;;;;;;;19.38;100.00;98771.48;137453;1274;22101;-82
2023/06/29 06:04:14;;;;;;;15.70;13.20;;;;;;;19.39;100.00;98774.10;137453;1274;22586;-83
2023/06/29 06:07:17;;;;;;;14.10;12.80;;;;;;;19.37;100.00;98775.56;137535;1271;22289;-83
2023/06/29 06:10:19;;;;;;;16.80;11.70;;;;;;;19.34;100.00;98773.17;137472;1274;22108;-84
2023/06/29 06:13:22;;;;;;;15.00;11.90;;;;;;;19.17;100.00;98771.48;137604;1274;22527;-83
2023/06/29 06:16:25;;;;;;;12.70;11.10;;;;;;;19.29;100.00;98774.73;137587;1274;22306;-84
2023/06/29 06:19:27;;;;;;;12.20;10.40;;;;;;;19.46;100.00;98775.69;137603;1274;22107;-83
2023/06/29 06:22:30;;;;;;;16.10;10.90;;;;;;;19.38;100.00;98779.41;137644;1274;22344;-84
2023/06/29 06:25:33;;;;;;;13.60;12.00;;;;;;;19.28;100.00;98776.84;137713;1273;22759;-84
2023/06/29 06:28:35;;;;;;;17.60;12.40;;;;;;;19.39;100.00;98775.50;137484;1271;22314;-84
2023/06/29 06:31:40;;;;;;;13.20;11.50;;;;;;;19.73;100.00;98775.56;137553;1274;22302;-83
2023/06/29 06:34:45;;;;;;;15.60;11.20;;;;;;;19.96;100.00;98779.04;137540;1274;22116;-83
2023/06/29 06:37:48;;;;;;;12.90;11.60;;;;;;;19.92;100.00;98786.92;137406;1274;22181;-84
2023/06/29 06:40:51;;;;;;;15.30;12.00;;;;;;;19.71;100.00;98788.85;137377;1274;22594;-83
2023/06/29 06:43:54;;;;;;;13.00;11.60;;;;;;;19.67;100.00;98790.54;137340;1274;22609;-84
2023/06/29 06:46:57;;;;;;;13.90;11.30;;;;;;;19.64;100.00;98792.73;137408;1274;22745;-84
2023/06/29 06:49:59;;;;;;;17.60;10.90;;;;;;;19.63;100.00;98796.47;137426;1274;22538;-83
2023/06/29 06:53:02;;;;;;;11.80;10.50;;;;;;;19.65;100.00;98802.25;137396;1274;22641;-84
2023/06/29 06:56:04;;;;;;;14.00;11.20;;;;;;;19.55;100.00;98803.19;137420;1274;22185;-82
2023/06/29 06:59:08;;;;;;;14.50;11.50;;;;;;;19.69;100.00;98800.91;137476;1274;22107;-84
2023/06/29 07:02:10;;;;;;;12.60;11.00;;;;;;;19.94;100.00;98800.29;137465;1274;22904;-83
2023/06/29 07:05:14;;;;;;;29.50;14.70;;;;;;;20.24;100.00;98795.24;137473;1274;22734;-84
2023/06/29 07:08:17;;;;;;;24.50;13.20;;;;;;;20.58;100.00;98803.30;137464;1262;22097;-84
2023/06/29 07:11:20;;;;;;;13.70;10.30;;;;;;;20.80;100.00;98802.30;137441;1274;22204;-85
2023/06/29 07:14:25;;;;;;;12.90;11.10;;;;;;;20.68;100.00;98807.25;137478;1274;22268;-83
2023/06/29 07:17:28;;;;;;;12.20;11.00;;;;;;;20.75;100.00;98806.68;137503;1274;22718;-84
2023/06/29 07:20:32;;;;;;;11.30;9.30;;;;;;;20.93;100.00;98809.70;137509;1274;22250;-84
2023/06/29 07:23:35;;;;;;;13.80;10.40;;;;;;;21.09;100.00;98810.29;137455;1274;22155;-83
2023/06/29 07:26:37;;;;;;;13.50;10.60;;;;;;;21.10;100.00;98812.17;137446;1274;22764;-84
2023/06/29 07:29:42;;;;;;;13.50;10.50;;;;;;;21.19;100.00;98808.39;137424;1274;22732;-84
2023/06/29 07:32:45;;;;;;;11.50;10.00;;;;;;;21.10;100.00;98808.66;137458;1274;22199;-84
2023/06/29 07:35:47;;;;;;;11.20;10.10;;;;;;;21.08;100.00;98812.98;137506;1274;22132;-83
2023/06/29 07:38:50;;;;;;;16.40;9.60;;;;;;;21.00;100.00;98812.32;137428;1274;22116;-81
2023/06/29 07:41:54;;;;;;;13.10;9.40;;;;;;;21.21;100.00;98814.70;137506;1274;22122;-83
2023/06/29 07:44:59;;;;;;;11.60;8.20;;;;;;;21.49;100.00;98818.23;137510;1274;22104;-83
2023/06/29 07:48:02;;;;;;;12.90;8.80;;;;;;;21.56;100.00;98824.36;137474;1274;22257;-82
2023/06/29 07:51:05;;;;;;;10.80;8.60;;;;;;;21.90;100.00;98818.46;137528;1270;22823;-83
2023/06/29 07:54:08;;;;;;;11.40;8.70;;;;;;;21.89;100.00;98825.25;137505;1274;22123;-84
2023/06/29 07:57:11;;;;;;;14.60;10.60;;;;;;;21.59;100.00;98831.00;137516;1274;22517;-83
2023/06/29 08:00:14;;;;;;;16.60;10.00;;;;;;;21.50;100.00;98830.59;137473;1272;22503;-83
2023/06/29 08:03:18;;;;;;;17.70;10.00;;;;;;;21.33;100.00;98832.73;137439;1274;22591;-83
2023/06/29 08:06:21;;;;;;;;;;;;;;;21.08;100.00;98835.96;137377;1274;22418;-84
2023/06/29 08:09:24;;;;;;;11.10;10.10;;;;;;;20.78;100.00;98834.70;137425;1274;22114;-84
2023/06/29 08:12:26;;;;;;;10.90;9.90;;;;;;;20.57;100.00;98837.27;137430;1274;22595;-82
2023/06/29 08:15:29;;;;;;;17.20;10.30;;;;;;;20.61;100.00;98829.37;137421;1274;22133;-83
2023/06/29 08:18:32;;;;;;;16.50;9.50;;;;;;;20.84;100.00;98826.60;137404;1270;22134;-83
2023/06/29 08:21:34;;;;;;;13.20;9.40;;;;;;;21.06;100.00;98823.30;137422;1274;22160;-83
2023/06/29 08:24:37;;;;;;;10.40;9.40;;;;;;;21.12;100.00;98822.55;137380;1273;22210;-83
2023/06/29 08:27:41;;;;;;;11.50;9.80;;;;;;;21.18;100.00;98828.76;137396;1274;22124;-82
2023/06/29 08:30:43;;;;;;;13.90;9.40;;;;;;;21.32;100.00;98821.95;137396;1274;22222;-84
2023/06/29 08:33:46;;;;;;;13.10;11.00;;;;;;;21.15;100.00;98824.23;137457;1274;22201;-83
2023/06/29 08:36:49;;;;;;;13.00;9.10;;;;;;;21.21;100.00;98827.27;137434;1274;22382;-84
2023/06/29 08:39:52;;;;;;;16.90;10.90;;;;;;;21.32;100.00;98826.92;137467;1267;22199;-84
2023/06/29 08:42:54;;;;;;;11.70;10.60;;;;;;;21.62;100.00;98833.38;137474;1274;22115;-85
2023/06/29 08:45:57;;;;;;;12.40;9.50;;;;;;;21.66;100.00;98838.05;137352;1274;22118;-83
2023/06/29 08:49:00;;;;;;;10.90;9.80;;;;;;;21.62;100.00;98840.65;137386;1273;22224;-84
2023/06/29 08:52:03;;;;;;;12.30;9.70;;;;;;;21.78;100.00;98841.73;137394;1274;21791;-84
2023/06/29 08:55:06;;;;;;;19.20;10.70;;;;;;;21.79;100.00;98840.83;137391;1273;22099;-84
2023/06/29 08:58:08;;;;;;;10.90;9.80;;;;;;;21.58;100.00;98837.23;137364;1273;22119;-84
2023/06/29 09:01:11;;;;;;;18.30;9.90;;;;;;;21.70;100.00;98831.56;137420;1274;22082;-84
2023/06/29 09:04:14;;;;;;;11.20;9.30;;;;;;;21.88;100.00;98824.94;137398;1274;22154;-83
2023/06/29 09:07:16;;;;;;;10.40;9.30;;;;;;;22.09;100.00;98829.52;137390;1273;22098;-84
2023/06/29 09:10:19;;;;;;;10.80;8.90;;;;;;;22.20;100.00;98829.34;137462;1274;22131;-84
2023/06/29 09:13:22;;;;;;;11.30;9.30;;;;;;;22.30;100.00;98833.08;137500;1274;22645;-87
2023/06/29 09:16:25;;;;;;;11.70;9.40;;;;;;;22.27;100.00;98829.80;137468;1274;22264;-86
2023/06/29 09:19:29;;;;;;;9.60;8.60;;;;;;;22.48;100.00;98825.30;137464;1274;22065;-84
2023/06/29 09:22:32;;;;;;;11.90;9.30;;;;;;;22.73;100.00;98821.05;137469;1274;22864;-86
2023/06/29 09:25:34;;;;;;;16.30;9.20;;;;;;;22.87;100.00;98819.10;137399;1274;22423;-87
2023/06/29 09:28:37;;;;;;;13.60;9.60;;;;;;;22.70;100.00;98819.71;137418;1274;22634;-87
2023/06/29 09:31:57;;;;;;;11.30;9.80;;;;;;;22.68;100.00;98817.86;137389;1274;22166;-86
2023/06/29 09:34:59;;;;;;;12.00;8.90;;;;;;;22.85;100.00;98813.52;137468;1273;22402;-86
2023/06/29 09:38:01;;;;;;;10.20;9.20;;;;;;;22.95;100.00;98813.65;137458;1273;22278;-86
2023/06/29 09:41:04;;;;;;;11.20;10.10;;;;;;;23.23;100.00;98809.90;137411;1274;22119;-81
2023/06/29 09:44:07;;;;;;;10.60;9.30;;;;;;;23.34;100.00;98804.84;137388;1274;22140;-85
2023/06/29 09:47:09;;;;;;;13.00;8.70;;;;;;;23.34;100.00;98802.70;137411;1273;22213;-84
2023/06/29 09:50:12;;;;;;;10.30;9.40;;;;;;;23.37;100.00;98805.07;137408;1274;22145;-86
2023/06/29 09:53:21;;;;;;;9.30;8.40;;;;;;;23.45;100.00;98802.09;137431;1273;22529;-84
2023/06/29 09:56:26;;;;;;;9.70;8.70;;;;;;;23.63;100.00;98800.85;137381;1274;22130;-85
2023/06/29 09:59:31;;;;;;;12.90;8.90;;;;;;;23.54;100.00;98801.20;137409;1274;22066;-84
2023/06/29 10:02:40;;;;;;;10.20;8.70;;;;;;;23.36;100.00;98794.10;137402;1274;22703;-85
2023/06/29 10:05:43;;;;;;;9.90;9.00;;;;;;;23.66;100.00;98795.73;137398;1274;22109;-86
2023/06/29 10:08:46;;;;;;;13.60;8.90;;;;;;;23.94;100.00;98793.48;137458;1274;22088;-85
2023/06/29 10:11:53;;;;;;;8.70;7.50;;;;;;;24.07;100.00;98799.48;137417;1274;22118;-85
2023/06/29 10:14:57;;;;;;;8.50;7.40;;;;;;;24.19;100.00;98794.89;137385;1274;22114;-86
2023/06/29 10:18:01;;;;;;;9.30;7.40;;;;;;;24.60;100.00;98792.23;137435;1274;22436;-85
2023/06/29 10:21:05;;;;;;;9.00;8.10;;;;;;;24.76;84.99;98791.99;137432;1273;22284;-84
2023/06/29 10:24:13;;;;;;;8.40;7.60;;;;;;;24.90;61.39;98789.91;137396;1267;22990;-85
2023/06/29 10:27:16;;;;;;;11.10;7.80;;;;;;;24.76;61.04;98791.46;137403;1273;22283;-84
2023/06/29 10:30:21;;;;;;;8.30;7.60;;;;;;;24.57;61.23;98786.45;137443;1274;22436;-85
2023/06/29 10:33:23;;;;;;;9.80;7.90;;;;;;;24.26;61.73;98787.13;137441;1273;22150;-82
2023/06/29 10:36:26;;;;;;;17.50;7.80;;;;;;;24.76;62.77;98784.16;137492;1274;22326;-83
2023/06/29 10:39:28;;;;;;;9.60;6.70;;;;;;;25.30;58.98;98780.40;137523;1273;22127;-84
2023/06/29 10:42:32;;;;;;;9.40;7.00;;;;;;;25.10;57.93;98780.45;137516;1273;22198;-84
2023/06/29 10:45:34;;;;;;;7.70;6.00;;;;;;;24.70;58.16;98784.27;137588;1274;22158;-82
2023/06/29 10:48:37;;;;;;;6.50;5.90;;;;;;;24.48;58.21;98773.56;137576;1260;22311;-85
2023/06/29 10:51:39;;;;;;;7.30;5.60;;;;;;;24.59;58.58;98768.23;137590;1274;22800;-83
2023/06/29 10:54:42;;;;;;;10.30;7.30;;;;;;;25.13;59.27;98758.91;137547;1274;22260;-85
2023/06/29 10:57:44;;;;;;;6.70;6.20;;;;;;;25.58;57.33;98758.69;137544;1274;22570;-84
2023/06/29 11:00:47;;;;;;;6.00;5.40;;;;;;;25.41;56.92;98758.29;137574;1274;22216;-84
2023/06/29 11:03:49;;;;;;;6.40;5.90;;;;;;;25.18;57.64;98758.55;137540;1274;22106;-84
2023/06/29 11:06:52;;;;;;;7.40;5.70;;;;;;;25.07;58.53;98755.52;137487;1274;22139;-84
2023/06/29 11:09:54;;;;;;;6.80;5.70;;;;;;;25.63;57.12;98752.20;137515;1274;22132;-82
2023/06/29 11:12:57;;;;;;;7.90;5.90;;;;;;;25.90;55.48;98747.30;137439;1273;22084;-84
2023/06/29 11:15:59;;;;;;;5.50;5.10;;;;;;;26.07;55.57;98750.51;137451;1274;22202;-86
2023/06/29 11:19:07;;;;;;;5.70;5.10;;;;;;;26.14;53.27;98748.39;137204;1274;22717;-84
2023/06/29 11:22:10;;;;;;;6.50;5.90;;;;;;;26.03;52.94;98749.30;137390;1274;22094;-84
2023/06/29 11:25:13;;;;;;;7.20;5.90;;;;;;;26.11;54.93;98745.48;137452;1274;22588;-85
2023/06/29 11:28:16;;;;;;;6.80;6.10;;;;;;;26.33;54.16;98739.52;137375;1274;22119;-86
2023/06/29 11:31:19;;;;;;;6.70;5.90;;;;;;;26.41;53.44;98740.54;137361;1273;22133;-85
2023/06/29 11:34:23;;;;;;;11.90;5.30;;;;;;;26.46;53.95;98734.50;137450;1273;22142;-86
2023/06/29 11:37:37;;;;;;;30.10;7.40;;;;;;;26.62;53.57;98735.79;137404;1274;22191;-86
2023/06/29 11:40:41;;;;;;;6.70;5.70;;;;;;;26.73;52.99;98727.52;137408;1274;22116;-87
2023/06/29 11:43:46;;;;;;;7.50;6.20;;;;;;;26.42;52.01;98734.02;137362;1270;22142;-85
2023/06/29 11:50:36;;;;;;;5.60;4.80;;;;;;;25.87;51.09;98724.43;137343;1274;22469;-85
2023/06/29 11:53:47;;;;;;;10.40;6.40;;;;;;;25.79;52.44;98723.98;137378;1274;22139;-83
2023/06/29 11:56:52;;;;;;;5.10;4.70;;;;;;;25.65;52.69;98724.66;137414;1273;22153;-86
2023/06/29 12:00:06;;;;;;;7.70;4.50;;;;;;;25.52;52.74;98716.27;137358;1274;22091;-79
2023/06/29 12:03:09;;;;;;;8.60;4.90;;;;;;;25.65;51.67;98718.44;137454;1274;22165;-86
2023/06/29 12:06:13;;;;;;;6.90;4.90;;;;;;;25.88;53.00;98712.80;137402;1273;22388;-86
2023/06/29 12:09:27;;;;;;;9.70;6.10;;;;;;;26.19;53.68;98707.98;137418;1273;22235;-88
2023/06/29 12:12:38;;;;;;;8.80;5.10;;;;;;;26.74;52.01;98702.48;137377;1272;22232;-85
2023/06/29 12:15:43;;;;;;;8.50;6.20;;;;;;;26.98;49.51;98704.39;137321;1274;22692;-85
2023/06/29 12:18:46;;;;;;;8.30;4.10;;;;;;;27.05;49.64;98696.98;137372;1274;23304;-85
2023/06/29 12:21:49;;;;;;;7.50;4.70;;;;;;;27.24;48.75;98697.88;137344;1270;22574;-84
2023/06/29 12:24:51;;;;;;;12.00;4.70;;;;;;;26.74;48.40;98693.55;137327;1274;22100;-82
2023/06/29 12:27:57;;;;;;;9.40;4.40;;;;;;;26.67;49.88;98688.58;137278;1274;22100;-84
2023/06/29 12:31:00;;;;;;;4.40;4.00;;;;;;;26.80;49.33;98684.45;137338;1274;22270;-83
2023/06/29 12:34:02;;;;;;;4.30;4.00;;;;;;;26.92;50.24;98678.29;137342;1274;22206;-81
2023/06/29 12:37:05;;;;;;;5.80;4.30;;;;;;;26.80;49.36;98678.59;137370;1267;22119;-83
2023/06/29 12:40:08;;;;;;;9.00;4.10;;;;;;;26.46;48.82;98677.40;137331;1274;22124;-84
2023/06/29 12:43:10;;;;;;;6.20;4.30;;;;;;;26.37;47.99;98680.42;137300;1274;22228;-82
2023/06/29 12:46:13;;;;;;;4.80;4.10;;;;;;;26.28;48.78;98674.11;137292;1274;22091;-82
2023/06/29 12:49:16;;;;;;;6.10;3.80;;;;;;;26.65;49.99;98669.61;137361;1274;22109;-82
2023/06/29 12:52:18;;;;;;;5.20;4.10;;;;;;;27.06;48.83;98664.08;137341;1274;22286;-81
2023/06/29 12:55:21;;;;;;;7.80;4.50;;;;;;;27.44;49.29;98664.34;137316;1274;22210;-84
2023/06/29 12:58:24;;;;;;;14.60;11.70;;;;;;;27.78;48.75;98655.19;137380;1274;22160;-83
2023/06/29 13:01:26;;;;;;;11.30;4.80;;;;;;;28.21;48.00;98650.18;137382;1274;22156;-82
2023/06/29 13:04:29;;;;;;;42.20;6.80;;;;;;;28.53;47.35;98647.11;137387;1274;22145;-83
2023/06/29 13:07:31;;;;;;;8.00;3.40;;;;;;;28.70;47.03;98648.17;137383;1274;22113;-82
2023/06/29 13:10:34;;;;;;;4.10;3.40;;;;;;;28.32;43.91;98642.17;137379;1274;22102;-82
2023/06/29 13:13:38;;;;;;;6.20;3.50;;;;;;;27.99;45.13;98639.92;137413;1274;22123;-83
2023/06/29 13:16:40;;;;;;;11.00;4.60;;;;;;;27.90;42.35;98642.65;137440;1274;22119;-82
2023/06/29 13:19:43;;;;;;;7.90;4.00;;;;;;;27.93;44.26;98636.22;137415;1274;22329;-82
2023/06/29 13:22:45;;;;;;;9.10;4.10;;;;;;;28.13;44.27;98644.23;137382;1274;22289;-81
2023/06/29 13:25:48;;;;;;;8.00;3.50;;;;;;;27.99;45.32;98642.43;137377;1274;22097;-82
2023/06/29 13:28:50;;;;;;;5.80;3.80;;;;;;;27.58;45.07;98641.13;137425;1274;22123;-79
2023/06/29 13:31:53;;;;;;;5.60;3.70;;;;;;;27.10;46.17;98640.42;137399;1274;22127;-81
2023/06/29 13:34:55;;;;;;;5.00;3.70;;;;;;;27.16;46.99;98639.91;137440;1273;22420;-81
2023/06/29 13:37:58;;;;;;;6.60;4.30;;;;;;;27.31;46.55;98640.13;137386;1273;22913;-79
2023/06/29 13:41:01;;;;;;;4.10;3.60;;;;;;;27.41;45.82;98638.42;137410;1274;22193;-83
2023/06/29 13:44:03;;;;;;;4.90;4.00;;;;;;;27.43;45.14;98631.16;137458;1273;22142;-82
2023/06/29 13:47:10;;;;;;;9.50;4.10;;;;;;;27.44;45.17;98629.86;137426;1274;22141;-83
2023/06/29 13:50:14;;;;;;;7.20;4.20;;;;;;;27.37;46.14;98627.80;137447;1274;22205;-83
2023/06/29 13:53:19;;;;;;;4.40;3.80;;;;;;;27.51;45.21;98628.55;137479;1273;22630;-85
2023/06/29 13:56:22;;;;;;;4.60;4.20;;;;;;;27.47;44.59;98624.48;137448;1266;22161;-85